sensor_id;sensor_type;location;lat;lon;timestamp;P1;durP1;ratioP1;P2;durP2;ratioP2
33206;SDS011;19565;46.602;11.534;2024-03-08T00:01:10;12.10;;;11.50;;
33206;SDS011;19565;46.602;11.534;2024-03-08T00:03:40;11.80;;;11.20;;
33206;SDS011;19565;46.602;11.534;2024-03-08T00:06:08;12.40;;;11.80;;
33206;SDS011;19565;46.602;11.534;2024-03-08T00:08:37;14.00;;;13.20;;
33206;SDS011;19565;46.602;11.534;2024-03-08T00:11:05;12.30;;;11.70;;
33206;SDS011;19565;46.602;11.534;2024-03-08T00:13:34;12.53;;;11.83;;
33206;SDS011;19565;46.602;11.534;2024-03-08T00:16:03;11.73;;;11.13;;
33206;SDS011;19565;46.602;11.534;2024-03-08T00:18:31;11.70;;;11.10;;
33206;SDS011;19565;46.602;11.534;2024-03-08T00:21:01;11.70;;;11.10;;
33206;SDS011;19565;46.602;11.534;2024-03-08T00:23:30;12.87;;;12.17;;
33206;SDS011;19565;46.602;11.534;2024-03-08T00:25:59;11.50;;;10.90;;
33206;SDS011;19565;46.602;11.534;2024-03-08T00:28:30;11.73;;;11.13;;
33206;SDS011;19565;46.602;11.534;2024-03-08T00:30:58;11.77;;;11.17;;
33206;SDS011;19565;46.602;11.534;2024-03-08T00:33:26;11.60;;;11.00;;
33206;SDS011;19565;46.602;11.534;2024-03-08T00:35:54;11.90;;;11.23;;
33206;SDS011;19565;46.602;11.534;2024-03-08T00:38:23;11.20;;;10.60;;
33206;SDS011;19565;46.602;11.534;2024-03-08T00:40:52;12.37;;;11.67;;
33206;SDS011;19565;46.602;11.534;2024-03-08T00:43:20;12.07;;;11.27;;
33206;SDS011;19565;46.602;11.534;2024-03-08T00:45:48;12.27;;;11.60;;
33206;SDS011;19565;46.602;11.534;2024-03-08T00:48:16;11.17;;;10.57;;
33206;SDS011;19565;46.602;11.534;2024-03-08T00:50:45;12.07;;;11.47;;
33206;SDS011;19565;46.602;11.534;2024-03-08T00:53:14;12.60;;;11.70;;
33206;SDS011;19565;46.602;11.534;2024-03-08T00:55:44;12.10;;;11.50;;
33206;SDS011;19565;46.602;11.534;2024-03-08T00:58:12;11.70;;;11.10;;
33206;SDS011;19565;46.602;11.534;2024-03-08T01:00:41;19.50;;;18.60;;
33206;SDS011;19565;46.602;11.534;2024-03-08T01:03:09;19.63;;;18.73;;
33206;SDS011;19565;46.602;11.534;2024-03-08T01:05:37;20.43;;;19.53;;
33206;SDS011;19565;46.602;11.534;2024-03-08T01:08:06;20.70;;;19.80;;
33206;SDS011;19565;46.602;11.534;2024-03-08T01:10:34;21.63;;;20.63;;
33206;SDS011;19565;46.602;11.534;2024-03-08T01:13:04;22.30;;;21.30;;
33206;SDS011;19565;46.602;11.534;2024-03-08T01:15:33;21.17;;;20.27;;
33206;SDS011;19565;46.602;11.534;2024-03-08T01:18:01;21.30;;;20.30;;
33206;SDS011;19565;46.602;11.534;2024-03-08T01:20:29;20.77;;;19.70;;
33206;SDS011;19565;46.602;11.534;2024-03-08T01:22:57;19.87;;;18.93;;
33206;SDS011;19565;46.602;11.534;2024-03-08T01:25:26;9.07;;;8.57;;
33206;SDS011;19565;46.602;11.534;2024-03-08T01:27:54;9.33;;;8.83;;
33206;SDS011;19565;46.602;11.534;2024-03-08T01:30:24;10.00;;;9.40;;
33206;SDS011;19565;46.602;11.534;2024-03-08T01:32:52;11.00;;;10.40;;
33206;SDS011;19565;46.602;11.534;2024-03-08T01:35:20;10.70;;;10.10;;
33206;SDS011;19565;46.602;11.534;2024-03-08T01:37:49;10.40;;;9.80;;
33206;SDS011;19565;46.602;11.534;2024-03-08T01:40:17;10.47;;;9.87;;
33206;SDS011;19565;46.602;11.534;2024-03-08T01:42:45;10.30;;;9.70;;
33206;SDS011;19565;46.602;11.534;2024-03-08T01:45:14;9.70;;;9.20;;
33206;SDS011;19565;46.602;11.534;2024-03-08T01:47:44;9.33;;;8.83;;
33206;SDS011;19565;46.602;11.534;2024-03-08T01:50:14;9.50;;;9.00;;
33206;SDS011;19565;46.602;11.534;2024-03-08T01:52:43;9.50;;;9.00;;
33206;SDS011;19565;46.602;11.534;2024-03-08T01:55:12;10.20;;;9.60;;
33206;SDS011;19565;46.602;11.534;2024-03-08T01:57:42;10.20;;;9.60;;
33206;SDS011;19565;46.602;11.534;2024-03-08T02:00:11;9.70;;;9.20;;
33206;SDS011;19565;46.602;11.534;2024-03-08T02:02:40;10.47;;;9.87;;
33206;SDS011;19565;46.602;11.534;2024-03-08T02:05:14;9.77;;;9.27;;
33206;SDS011;19565;46.602;11.534;2024-03-08T02:07:43;10.93;;;10.33;;
33206;SDS011;19565;46.602;11.534;2024-03-08T02:10:11;10.80;;;10.20;;
33206;SDS011;19565;46.602;11.534;2024-03-08T02:12:40;10.03;;;9.43;;
33206;SDS011;19565;46.602;11.534;2024-03-08T02:15:08;10.33;;;9.73;;
33206;SDS011;19565;46.602;11.534;2024-03-08T02:17:37;12.40;;;11.70;;
33206;SDS011;19565;46.602;11.534;2024-03-08T02:20:07;11.47;;;10.87;;
33206;SDS011;19565;46.602;11.534;2024-03-08T02:22:41;10.03;;;9.43;;
33206;SDS011;19565;46.602;11.534;2024-03-08T02:25:10;11.07;;;10.47;;
33206;SDS011;19565;46.602;11.534;2024-03-08T02:27:38;10.20;;;9.60;;
33206;SDS011;19565;46.602;11.534;2024-03-08T02:30:07;11.03;;;10.43;;
33206;SDS011;19565;46.602;11.534;2024-03-08T02:32:39;10.67;;;10.07;;
33206;SDS011;19565;46.602;11.534;2024-03-08T02:35:07;13.37;;;12.13;;
33206;SDS011;19565;46.602;11.534;2024-03-08T02:37:36;10.60;;;10.00;;
33206;SDS011;19565;46.602;11.534;2024-03-08T02:40:06;10.47;;;9.87;;
33206;SDS011;19565;46.602;11.534;2024-03-08T02:42:35;11.47;;;10.87;;
33206;SDS011;19565;46.602;11.534;2024-03-08T02:45:04;12.07;;;11.23;;
33206;SDS011;19565;46.602;11.534;2024-03-08T02:47:36;19.90;;;19.00;;
33206;SDS011;19565;46.602;11.534;2024-03-08T02:50:05;19.57;;;18.67;;
33206;SDS011;19565;46.602;11.534;2024-03-08T02:52:34;20.40;;;19.50;;
33206;SDS011;19565;46.602;11.534;2024-03-08T02:55:03;22.70;;;21.70;;
33206;SDS011;19565;46.602;11.534;2024-03-08T02:57:34;12.07;;;10.90;;
33206;SDS011;19565;46.602;11.534;2024-03-08T03:00:03;19.43;;;18.43;;
33206;SDS011;19565;46.602;11.534;2024-03-08T03:02:36;20.90;;;19.80;;
33206;SDS011;19565;46.602;11.534;2024-03-08T03:05:05;20.00;;;19.10;;
33206;SDS011;19565;46.602;11.534;2024-03-08T03:07:35;20.40;;;19.50;;
33206;SDS011;19565;46.602;11.534;2024-03-08T03:10:04;18.37;;;17.50;;
33206;SDS011;19565;46.602;11.534;2024-03-08T03:12:36;17.00;;;16.20;;
33206;SDS011;19565;46.602;11.534;2024-03-08T03:15:04;7.33;;;6.93;;
33206;SDS011;19565;46.602;11.534;2024-03-08T03:17:33;16.73;;;15.83;;
33206;SDS011;19565;46.602;11.534;2024-03-08T03:20:02;15.67;;;14.90;;
33206;SDS011;19565;46.602;11.534;2024-03-08T03:22:36;16.27;;;15.47;;
33206;SDS011;19565;46.602;11.534;2024-03-08T03:25:05;15.07;;;14.13;;
33206;SDS011;19565;46.602;11.534;2024-03-08T03:27:35;14.07;;;13.37;;
33206;SDS011;19565;46.602;11.534;2024-03-08T03:30:06;13.20;;;12.50;;
33206;SDS011;19565;46.602;11.534;2024-03-08T03:32:47;13.53;;;12.43;;
33206;SDS011;19565;46.602;11.534;2024-03-08T03:35:18;11.47;;;10.87;;
33206;SDS011;19565;46.602;11.534;2024-03-08T03:37:47;11.47;;;10.87;;
33206;SDS011;19565;46.602;11.534;2024-03-08T03:40:28;10.40;;;9.80;;
33206;SDS011;19565;46.602;11.534;2024-03-08T03:42:57;11.67;;;10.87;;
33206;SDS011;19565;46.602;11.534;2024-03-08T03:45:26;10.50;;;9.90;;
33206;SDS011;19565;46.602;11.534;2024-03-08T03:47:54;10.33;;;9.53;;
33206;SDS011;19565;46.602;11.534;2024-03-08T03:50:23;10.03;;;9.40;;
33206;SDS011;19565;46.602;11.534;2024-03-08T03:52:51;10.37;;;9.77;;
33206;SDS011;19565;46.602;11.534;2024-03-08T03:55:19;9.23;;;8.63;;
33206;SDS011;19565;46.602;11.534;2024-03-08T03:57:48;8.07;;;7.57;;
33206;SDS011;19565;46.602;11.534;2024-03-08T04:00:18;6.70;;;6.30;;
33206;SDS011;19565;46.602;11.534;2024-03-08T04:02:46;6.93;;;6.53;;
33206;SDS011;19565;46.602;11.534;2024-03-08T04:05:15;2.50;;;2.30;;
33206;SDS011;19565;46.602;11.534;2024-03-08T04:07:43;1.50;;;1.50;;
33206;SDS011;19565;46.602;11.534;2024-03-08T04:10:11;2.67;;;2.47;;
33206;SDS011;19565;46.602;11.534;2024-03-08T04:12:40;2.23;;;2.03;;
33206;SDS011;19565;46.602;11.534;2024-03-08T04:15:09;1.90;;;1.80;;
33206;SDS011;19565;46.602;11.534;2024-03-08T04:17:39;1.37;;;1.37;;
33206;SDS011;19565;46.602;11.534;2024-03-08T04:20:08;1.23;;;1.23;;
33206;SDS011;19565;46.602;11.534;2024-03-08T04:22:37;1.50;;;1.50;;
33206;SDS011;19565;46.602;11.534;2024-03-08T04:25:06;2.23;;;2.13;;
33206;SDS011;19565;46.602;11.534;2024-03-08T04:27:36;1.30;;;1.30;;
33206;SDS011;19565;46.602;11.534;2024-03-08T04:30:04;1.50;;;1.40;;
33206;SDS011;19565;46.602;11.534;2024-03-08T04:32:35;1.97;;;1.87;;
33206;SDS011;19565;46.602;11.534;2024-03-08T04:35:06;1.30;;;1.20;;
33206;SDS011;19565;46.602;11.534;2024-03-08T04:37:35;1.87;;;1.00;;
33206;SDS011;19565;46.602;11.534;2024-03-08T04:40:03;1.57;;;1.47;;
33206;SDS011;19565;46.602;11.534;2024-03-08T04:42:32;0.80;;;0.80;;
33206;SDS011;19565;46.602;11.534;2024-03-08T04:45:03;1.00;;;1.00;;
33206;SDS011;19565;46.602;11.534;2024-03-08T04:47:32;0.60;;;0.60;;
33206;SDS011;19565;46.602;11.534;2024-03-08T04:50:04;0.63;;;0.63;;
33206;SDS011;19565;46.602;11.534;2024-03-08T04:52:35;0.63;;;0.63;;
33206;SDS011;19565;46.602;11.534;2024-03-08T04:55:04;0.97;;;0.80;;
33206;SDS011;19565;46.602;11.534;2024-03-08T04:57:33;0.60;;;0.60;;
33206;SDS011;19565;46.602;11.534;2024-03-08T05:00:01;2.23;;;1.27;;
33206;SDS011;19565;46.602;11.534;2024-03-08T05:02:31;1.43;;;0.93;;
33206;SDS011;19565;46.602;11.534;2024-03-08T05:04:59;0.70;;;0.70;;
33206;SDS011;19565;46.602;11.534;2024-03-08T05:07:28;0.60;;;0.60;;
33206;SDS011;19565;46.602;11.534;2024-03-08T05:09:57;0.70;;;0.70;;
33206;SDS011;19565;46.602;11.534;2024-03-08T05:12:25;0.47;;;0.47;;
33206;SDS011;19565;46.602;11.534;2024-03-08T05:14:53;1.27;;;1.20;;
33206;SDS011;19565;46.602;11.534;2024-03-08T05:17:22;1.27;;;1.10;;
33206;SDS011;19565;46.602;11.534;2024-03-08T05:19:50;1.83;;;1.73;;
33206;SDS011;19565;46.602;11.534;2024-03-08T05:22:19;0.47;;;0.47;;
33206;SDS011;19565;46.602;11.534;2024-03-08T05:24:49;1.20;;;1.20;;
33206;SDS011;19565;46.602;11.534;2024-03-08T05:27:17;1.50;;;1.40;;
33206;SDS011;19565;46.602;11.534;2024-03-08T05:29:46;1.60;;;1.50;;
33206;SDS011;19565;46.602;11.534;2024-03-08T05:32:14;1.60;;;1.50;;
33206;SDS011;19565;46.602;11.534;2024-03-08T05:34:42;2.33;;;2.23;;
33206;SDS011;19565;46.602;11.534;2024-03-08T05:37:11;1.67;;;1.63;;
33206;SDS011;19565;46.602;11.534;2024-03-08T05:39:39;2.30;;;2.20;;
33206;SDS011;19565;46.602;11.534;2024-03-08T05:42:09;3.60;;;3.00;;
33206;SDS011;19565;46.602;11.534;2024-03-08T05:44:38;2.40;;;2.30;;
33206;SDS011;19565;46.602;11.534;2024-03-08T05:47:06;1.90;;;1.80;;
33206;SDS011;19565;46.602;11.534;2024-03-08T05:49:35;1.53;;;1.53;;
33206;SDS011;19565;46.602;11.534;2024-03-08T05:52:03;2.17;;;2.07;;
33206;SDS011;19565;46.602;11.534;2024-03-08T05:54:31;1.10;;;1.00;;
33206;SDS011;19565;46.602;11.534;2024-03-08T05:56:59;0.50;;;0.50;;
33206;SDS011;19565;46.602;11.534;2024-03-08T05:59:29;0.97;;;0.83;;
33206;SDS011;19565;46.602;11.534;2024-03-08T06:01:58;0.80;;;0.80;;
33206;SDS011;19565;46.602;11.534;2024-03-08T06:04:26;0.80;;;0.80;;
33206;SDS011;19565;46.602;11.534;2024-03-08T06:06:55;0.90;;;0.90;;
33206;SDS011;19565;46.602;11.534;2024-03-08T06:09:24;0.50;;;0.50;;
33206;SDS011;19565;46.602;11.534;2024-03-08T06:11:53;0.30;;;0.30;;
33206;SDS011;19565;46.602;11.534;2024-03-08T06:14:21;1.27;;;0.70;;
33206;SDS011;19565;46.602;11.534;2024-03-08T06:16:51;0.77;;;0.77;;
33206;SDS011;19565;46.602;11.534;2024-03-08T06:19:19;5.50;;;0.93;;
33206;SDS011;19565;46.602;11.534;2024-03-08T06:21:48;0.97;;;0.97;;
33206;SDS011;19565;46.602;11.534;2024-03-08T06:24:16;3.07;;;2.17;;
33206;SDS011;19565;46.602;11.534;2024-03-08T06:26:44;4.87;;;2.50;;
33206;SDS011;19565;46.602;11.534;2024-03-08T06:29:13;1.27;;;1.17;;
33206;SDS011;19565;46.602;11.534;2024-03-08T06:31:42;10.50;;;1.60;;
33206;SDS011;19565;46.602;11.534;2024-03-08T06:34:11;1.53;;;0.93;;
33206;SDS011;19565;46.602;11.534;2024-03-08T06:36:41;1.07;;;0.80;;
33206;SDS011;19565;46.602;11.534;2024-03-08T06:39:09;0.60;;;0.60;;
33206;SDS011;19565;46.602;11.534;2024-03-08T06:41:38;1.23;;;1.13;;
33206;SDS011;19565;46.602;11.534;2024-03-08T06:44:06;1.03;;;0.70;;
33206;SDS011;19565;46.602;11.534;2024-03-08T06:46:35;3.03;;;1.67;;
33206;SDS011;19565;46.602;11.534;2024-03-08T06:49:04;1.00;;;0.97;;
33206;SDS011;19565;46.602;11.534;2024-03-08T06:51:35;0.67;;;0.57;;
33206;SDS011;19565;46.602;11.534;2024-03-08T06:54:03;0.60;;;0.60;;
33206;SDS011;19565;46.602;11.534;2024-03-08T06:56:36;0.40;;;0.40;;
33206;SDS011;19565;46.602;11.534;2024-03-08T06:59:04;0.77;;;0.77;;
33206;SDS011;19565;46.602;11.534;2024-03-08T07:01:33;0.87;;;0.80;;
33206;SDS011;19565;46.602;11.534;2024-03-08T07:04:03;0.60;;;0.60;;
33206;SDS011;19565;46.602;11.534;2024-03-08T07:06:32;0.50;;;0.50;;
33206;SDS011;19565;46.602;11.534;2024-03-08T07:09:02;1.27;;;1.17;;
33206;SDS011;19565;46.602;11.534;2024-03-08T07:11:30;2.13;;;1.93;;
33206;SDS011;19565;46.602;11.534;2024-03-08T07:13:59;1.23;;;1.20;;
33206;SDS011;19565;46.602;11.534;2024-03-08T07:16:29;1.50;;;1.17;;
33206;SDS011;19565;46.602;11.534;2024-03-08T07:18:57;2.50;;;2.03;;
33206;SDS011;19565;46.602;11.534;2024-03-08T07:21:26;0.80;;;0.80;;
33206;SDS011;19565;46.602;11.534;2024-03-08T07:23:55;0.63;;;0.63;;
33206;SDS011;19565;46.602;11.534;2024-03-08T07:26:53;2.20;;;2.00;;
33206;SDS011;19565;46.602;11.534;2024-03-08T07:29:21;1.73;;;1.63;;
33206;SDS011;19565;46.602;11.534;2024-03-08T07:31:50;1.20;;;1.13;;
33206;SDS011;19565;46.602;11.534;2024-03-08T07:34:27;0.70;;;0.70;;
33206;SDS011;19565;46.602;11.534;2024-03-08T07:37:01;1.70;;;1.60;;
33206;SDS011;19565;46.602;11.534;2024-03-08T07:39:30;1.03;;;0.97;;
33206;SDS011;19565;46.602;11.534;2024-03-08T07:42:00;0.50;;;0.50;;
33206;SDS011;19565;46.602;11.534;2024-03-08T07:44:28;1.60;;;1.03;;
33206;SDS011;19565;46.602;11.534;2024-03-08T07:46:58;0.80;;;0.80;;
33206;SDS011;19565;46.602;11.534;2024-03-08T07:49:26;1.23;;;1.23;;
33206;SDS011;19565;46.602;11.534;2024-03-08T07:51:54;0.93;;;0.93;;
33206;SDS011;19565;46.602;11.534;2024-03-08T07:54:22;9.27;;;0.93;;
33206;SDS011;19565;46.602;11.534;2024-03-08T07:56:52;0.80;;;0.80;;
33206;SDS011;19565;46.602;11.534;2024-03-08T07:59:22;1.57;;;1.47;;
33206;SDS011;19565;46.602;11.534;2024-03-08T08:01:51;0.73;;;0.73;;
33206;SDS011;19565;46.602;11.534;2024-03-08T08:04:19;1.70;;;0.73;;
33206;SDS011;19565;46.602;11.534;2024-03-08T08:06:51;3.10;;;1.57;;
33206;SDS011;19565;46.602;11.534;2024-03-08T08:09:21;6.47;;;2.25;;
33206;SDS011;19565;46.602;11.534;2024-03-08T08:12:01;0.90;;;0.90;;
33206;SDS011;19565;46.602;11.534;2024-03-08T08:14:32;1.00;;;1.00;;
33206;SDS011;19565;46.602;11.534;2024-03-08T08:17:00;2.57;;;1.40;;
33206;SDS011;19565;46.602;11.534;2024-03-08T08:19:32;1.47;;;1.37;;
33206;SDS011;19565;46.602;11.534;2024-03-08T08:22:01;0.90;;;0.90;;
33206;SDS011;19565;46.602;11.534;2024-03-08T08:24:30;1.67;;;1.00;;
33206;SDS011;19565;46.602;11.534;2024-03-08T08:26:58;0.87;;;0.83;;
33206;SDS011;19565;46.602;11.534;2024-03-08T08:29:27;1.20;;;1.10;;
33206;SDS011;19565;46.602;11.534;2024-03-08T08:31:58;1.73;;;1.63;;
33206;SDS011;19565;46.602;11.534;2024-03-08T08:34:29;2.07;;;1.97;;
33206;SDS011;19565;46.602;11.534;2024-03-08T08:36:57;2.07;;;1.97;;
33206;SDS011;19565;46.602;11.534;2024-03-08T08:39:26;2.17;;;2.07;;
33206;SDS011;19565;46.602;11.534;2024-03-08T08:41:54;1.67;;;1.60;;
33206;SDS011;19565;46.602;11.534;2024-03-08T08:44:22;1.43;;;1.10;;
33206;SDS011;19565;46.602;11.534;2024-03-08T08:46:52;2.47;;;2.27;;
33206;SDS011;19565;46.602;11.534;2024-03-08T08:49:32;1.70;;;1.60;;
33206;SDS011;19565;46.602;11.534;2024-03-08T08:52:01;1.53;;;1.53;;
33206;SDS011;19565;46.602;11.534;2024-03-08T08:54:41;1.37;;;1.37;;
33206;SDS011;19565;46.602;11.534;2024-03-08T08:57:15;2.07;;;1.97;;
33206;SDS011;19565;46.602;11.534;2024-03-08T08:59:44;1.70;;;1.60;;
33206;SDS011;19565;46.602;11.534;2024-03-08T09:02:12;2.93;;;2.77;;
33206;SDS011;19565;46.602;11.534;2024-03-08T09:04:45;2.03;;;1.93;;
33206;SDS011;19565;46.602;11.534;2024-03-08T09:07:14;1.90;;;1.80;;
33206;SDS011;19565;46.602;11.534;2024-03-08T09:09:43;2.10;;;2.00;;
33206;SDS011;19565;46.602;11.534;2024-03-08T09:12:12;2.67;;;2.47;;
33206;SDS011;19565;46.602;11.534;2024-03-08T09:14:40;5.20;;;2.93;;
33206;SDS011;19565;46.602;11.534;2024-03-08T09:17:08;2.57;;;2.47;;
33206;SDS011;19565;46.602;11.534;2024-03-08T09:19:37;2.00;;;1.90;;
33206;SDS011;19565;46.602;11.534;2024-03-08T09:22:07;1.80;;;1.70;;
33206;SDS011;19565;46.602;11.534;2024-03-08T09:24:37;1.60;;;1.60;;
33206;SDS011;19565;46.602;11.534;2024-03-08T09:27:05;1.83;;;1.73;;
33206;SDS011;19565;46.602;11.534;2024-03-08T09:29:36;2.07;;;1.80;;
33206;SDS011;19565;46.602;11.534;2024-03-08T09:32:04;2.00;;;1.90;;
33206;SDS011;19565;46.602;11.534;2024-03-08T09:34:33;4.30;;;4.00;;
33206;SDS011;19565;46.602;11.534;2024-03-08T09:37:04;3.47;;;2.43;;
33206;SDS011;19565;46.602;11.534;2024-03-08T09:39:34;2.13;;;2.03;;
33206;SDS011;19565;46.602;11.534;2024-03-08T09:42:02;2.23;;;2.13;;
33206;SDS011;19565;46.602;11.534;2024-03-08T09:44:32;2.17;;;2.07;;
33206;SDS011;19565;46.602;11.534;2024-03-08T09:47:01;2.73;;;2.63;;
33206;SDS011;19565;46.602;11.534;2024-03-08T09:49:30;2.03;;;1.93;;
33206;SDS011;19565;46.602;11.534;2024-03-08T09:51:58;2.83;;;2.63;;
33206;SDS011;19565;46.602;11.534;2024-03-08T09:54:27;3.07;;;2.87;;
33206;SDS011;19565;46.602;11.534;2024-03-08T09:56:57;2.67;;;2.53;;
33206;SDS011;19565;46.602;11.534;2024-03-08T09:59:25;3.13;;;2.93;;
33206;SDS011;19565;46.602;11.534;2024-03-08T10:02:14;2.10;;;2.00;;
33206;SDS011;19565;46.602;11.534;2024-03-08T10:04:44;1.90;;;1.80;;
33206;SDS011;19565;46.602;11.534;2024-03-08T10:07:16;4.87;;;3.03;;
33206;SDS011;19565;46.602;11.534;2024-03-08T10:09:44;2.30;;;2.20;;
33206;SDS011;19565;46.602;11.534;2024-03-08T10:12:18;3.57;;;3.27;;
33206;SDS011;19565;46.602;11.534;2024-03-08T10:14:49;2.47;;;2.27;;
33206;SDS011;19565;46.602;11.534;2024-03-08T10:17:19;2.97;;;2.77;;
33206;SDS011;19565;46.602;11.534;2024-03-08T10:19:50;2.50;;;2.40;;
33206;SDS011;19565;46.602;11.534;2024-03-08T10:22:19;2.50;;;2.40;;
33206;SDS011;19565;46.602;11.534;2024-03-08T10:24:48;2.87;;;2.70;;
33206;SDS011;19565;46.602;11.534;2024-03-08T10:27:18;2.40;;;2.30;;
33206;SDS011;19565;46.602;11.534;2024-03-08T10:29:47;3.17;;;2.97;;
33206;SDS011;19565;46.602;11.534;2024-03-08T10:32:18;2.90;;;2.80;;
33206;SDS011;19565;46.602;11.534;2024-03-08T10:34:46;3.10;;;2.90;;
33206;SDS011;19565;46.602;11.534;2024-03-08T10:37:16;3.20;;;3.00;;
33206;SDS011;19565;46.602;11.534;2024-03-08T10:39:54;3.77;;;3.57;;
33206;SDS011;19565;46.602;11.534;2024-03-08T10:42:40;3.20;;;3.00;;
33206;SDS011;19565;46.602;11.534;2024-03-08T10:45:15;3.80;;;3.60;;
33206;SDS011;19565;46.602;11.534;2024-03-08T10:47:53;3.93;;;3.73;;
33206;SDS011;19565;46.602;11.534;2024-03-08T10:50:30;5.13;;;4.83;;
33206;SDS011;19565;46.602;11.534;2024-03-08T10:53:02;4.73;;;4.43;;
33206;SDS011;19565;46.602;11.534;2024-03-08T10:55:33;3.90;;;3.60;;
33206;SDS011;19565;46.602;11.534;2024-03-08T10:58:05;4.53;;;4.17;;
33206;SDS011;19565;46.602;11.534;2024-03-08T11:00:34;6.07;;;5.77;;
33206;SDS011;19565;46.602;11.534;2024-03-08T11:03:03;5.10;;;4.80;;
33206;SDS011;19565;46.602;11.534;2024-03-08T11:05:32;5.30;;;5.00;;
33206;SDS011;19565;46.602;11.534;2024-03-08T11:08:16;5.63;;;5.23;;
33206;SDS011;19565;46.602;11.534;2024-03-08T11:10:48;6.20;;;5.80;;
33206;SDS011;19565;46.602;11.534;2024-03-08T11:13:35;7.93;;;7.43;;
33206;SDS011;19565;46.602;11.534;2024-03-08T11:16:07;7.80;;;7.30;;
33206;SDS011;19565;46.602;11.534;2024-03-08T11:18:36;8.80;;;8.30;;
33206;SDS011;19565;46.602;11.534;2024-03-08T11:21:06;6.37;;;5.97;;
33206;SDS011;19565;46.602;11.534;2024-03-08T11:23:39;5.50;;;5.20;;
33206;SDS011;19565;46.602;11.534;2024-03-08T11:26:17;5.83;;;5.43;;
33206;SDS011;19565;46.602;11.534;2024-03-08T11:28:47;6.33;;;5.93;;
33206;SDS011;19565;46.602;11.534;2024-03-08T11:31:22;6.20;;;5.70;;
33206;SDS011;19565;46.602;11.534;2024-03-08T11:33:51;6.53;;;6.03;;
33206;SDS011;19565;46.602;11.534;2024-03-08T11:36:20;6.50;;;6.10;;
33206;SDS011;19565;46.602;11.534;2024-03-08T11:38:49;6.33;;;5.93;;
33206;SDS011;19565;46.602;11.534;2024-03-08T11:41:20;6.80;;;6.40;;
33206;SDS011;19565;46.602;11.534;2024-03-08T11:44:04;8.50;;;8.00;;
33206;SDS011;19565;46.602;11.534;2024-03-08T11:46:33;6.63;;;6.23;;
33206;SDS011;19565;46.602;11.534;2024-03-08T11:49:02;6.80;;;6.40;;
33206;SDS011;19565;46.602;11.534;2024-03-08T11:51:32;6.37;;;5.97;;
33206;SDS011;19565;46.602;11.534;2024-03-08T11:54:00;6.83;;;6.43;;
33206;SDS011;19565;46.602;11.534;2024-03-08T11:56:29;7.33;;;6.73;;
33206;SDS011;19565;46.602;11.534;2024-03-08T11:59:00;6.73;;;6.33;;
33206;SDS011;19565;46.602;11.534;2024-03-08T12:01:29;8.13;;;7.63;;
33206;SDS011;19565;46.602;11.534;2024-03-08T12:03:58;7.80;;;7.30;;
33206;SDS011;19565;46.602;11.534;2024-03-08T12:06:35;8.07;;;7.40;;
33206;SDS011;19565;46.602;11.534;2024-03-08T12:09:08;8.50;;;8.00;;
33206;SDS011;19565;46.602;11.534;2024-03-08T12:11:37;8.40;;;7.90;;
33206;SDS011;19565;46.602;11.534;2024-03-08T12:14:07;7.40;;;7.00;;
33206;SDS011;19565;46.602;11.534;2024-03-08T12:16:37;8.70;;;8.20;;
33206;SDS011;19565;46.602;11.534;2024-03-08T12:19:08;10.67;;;10.07;;
33206;SDS011;19565;46.602;11.534;2024-03-08T12:21:37;4.23;;;3.93;;
33206;SDS011;19565;46.602;11.534;2024-03-08T12:24:14;5.50;;;5.00;;
33206;SDS011;19565;46.602;11.534;2024-03-08T12:26:45;4.57;;;4.27;;
33206;SDS011;19565;46.602;11.534;2024-03-08T12:29:17;9.70;;;9.20;;
33206;SDS011;19565;46.602;11.534;2024-03-08T12:31:50;9.57;;;9.07;;
33206;SDS011;19565;46.602;11.534;2024-03-08T12:34:20;11.03;;;10.43;;
33206;SDS011;19565;46.602;11.534;2024-03-08T12:36:50;10.73;;;10.13;;
33206;SDS011;19565;46.602;11.534;2024-03-08T12:39:21;13.03;;;12.33;;
33206;SDS011;19565;46.602;11.534;2024-03-08T12:41:54;13.70;;;12.90;;
33206;SDS011;19565;46.602;11.534;2024-03-08T12:44:25;14.53;;;13.73;;
33206;SDS011;19565;46.602;11.534;2024-03-08T12:46:55;16.23;;;15.43;;
33206;SDS011;19565;46.602;11.534;2024-03-08T12:49:26;15.67;;;14.90;;
33206;SDS011;19565;46.602;11.534;2024-03-08T12:51:54;16.73;;;15.93;;
33206;SDS011;19565;46.602;11.534;2024-03-08T12:54:22;18.07;;;17.17;;
33206;SDS011;19565;46.602;11.534;2024-03-08T12:56:51;17.43;;;16.63;;
33206;SDS011;19565;46.602;11.534;2024-03-08T12:59:21;18.43;;;17.53;;
33206;SDS011;19565;46.602;11.534;2024-03-08T13:01:52;17.60;;;16.73;;
33206;SDS011;19565;46.602;11.534;2024-03-08T13:04:21;18.50;;;17.30;;
33206;SDS011;19565;46.602;11.534;2024-03-08T13:06:50;17.23;;;16.43;;
33206;SDS011;19565;46.602;11.534;2024-03-08T13:09:21;19.80;;;18.90;;
33206;SDS011;19565;46.602;11.534;2024-03-08T13:11:50;20.13;;;19.07;;
33206;SDS011;19565;46.602;11.534;2024-03-08T13:14:21;20.17;;;19.27;;
33206;SDS011;19565;46.602;11.534;2024-03-08T13:16:54;19.80;;;18.90;;
33206;SDS011;19565;46.602;11.534;2024-03-08T13:19:23;19.70;;;18.80;;
33206;SDS011;19565;46.602;11.534;2024-03-08T13:21:54;19.30;;;18.40;;
33206;SDS011;19565;46.602;11.534;2024-03-08T13:24:23;18.87;;;17.97;;
33206;SDS011;19565;46.602;11.534;2024-03-08T13:26:51;19.93;;;19.03;;
33206;SDS011;19565;46.602;11.534;2024-03-08T13:29:19;21.27;;;20.27;;
33206;SDS011;19565;46.602;11.534;2024-03-08T13:31:47;20.93;;;19.93;;
33206;SDS011;19565;46.602;11.534;2024-03-08T13:34:20;21.73;;;20.73;;
33206;SDS011;19565;46.602;11.534;2024-03-08T13:36:54;23.77;;;22.00;;
33206;SDS011;19565;46.602;11.534;2024-03-08T13:39:27;21.67;;;20.67;;
33206;SDS011;19565;46.602;11.534;2024-03-08T13:41:59;19.53;;;18.63;;
33206;SDS011;19565;46.602;11.534;2024-03-08T13:44:27;21.47;;;20.47;;
33206;SDS011;19565;46.602;11.534;2024-03-08T13:46:56;22.17;;;20.97;;
33206;SDS011;19565;46.602;11.534;2024-03-08T13:49:27;21.70;;;20.50;;
33206;SDS011;19565;46.602;11.534;2024-03-08T13:51:55;22.37;;;21.37;;
33206;SDS011;19565;46.602;11.534;2024-03-08T13:54:25;21.97;;;20.97;;
33206;SDS011;19565;46.602;11.534;2024-03-08T13:56:57;19.70;;;18.80;;
33206;SDS011;19565;46.602;11.534;2024-03-08T13:59:26;22.23;;;21.13;;
33206;SDS011;19565;46.602;11.534;2024-03-08T14:01:55;24.37;;;23.17;;
33206;SDS011;19565;46.602;11.534;2024-03-08T14:04:27;22.77;;;21.67;;
33206;SDS011;19565;46.602;11.534;2024-03-08T14:06:56;21.27;;;20.33;;
33206;SDS011;19565;46.602;11.534;2024-03-08T14:09:29;22.17;;;21.17;;
33206;SDS011;19565;46.602;11.534;2024-03-08T14:11:58;34.17;;;32.77;;
33206;SDS011;19565;46.602;11.534;2024-03-08T14:14:26;24.50;;;23.33;;
33206;SDS011;19565;46.602;11.534;2024-03-08T14:16:54;26.90;;;25.47;;
33206;SDS011;19565;46.602;11.534;2024-03-08T14:19:25;26.93;;;25.73;;
33206;SDS011;19565;46.602;11.534;2024-03-08T14:21:55;27.43;;;26.23;;
33206;SDS011;19565;46.602;11.534;2024-03-08T14:24:26;25.20;;;24.10;;
33206;SDS011;19565;46.602;11.534;2024-03-08T14:26:54;26.00;;;24.90;;
33206;SDS011;19565;46.602;11.534;2024-03-08T14:29:25;42.77;;;25.70;;
33206;SDS011;19565;46.602;11.534;2024-03-08T14:31:55;15.73;;;14.93;;
33206;SDS011;19565;46.602;11.534;2024-03-08T14:34:25;16.20;;;15.40;;
33206;SDS011;19565;46.602;11.534;2024-03-08T14:36:57;15.40;;;14.60;;
33206;SDS011;19565;46.602;11.534;2024-03-08T14:39:28;30.07;;;18.50;;
33206;SDS011;19565;46.602;11.534;2024-03-08T14:41:56;15.97;;;15.17;;